Portada
METAR-TAF:

METAR-TAF

Aeropuertos :

Base Aérea de Getafe

Madrid-Getafe, España

latitud: 40-18N, longitud: 003-43W, altitud: 620 m

Observación

El informe se hizo hace 1 hora y 10 minutos, a las 07:00 UTC
Viento 4 kt del este
Temperatura 19°C
Humedad 52%
Presión 1025 hPa
Visibilidad 10 km o más
sin nubes por debajo de 1500 m y sin presencia de cumulonimbus.

METAR: LEGT 230700Z 08004KT CAVOK 19/09 Q1025

Hora: 10:10 (08:10 UTC)

Pronóstico

El informe se hizo hace 3 horas y 10 minutos, a las 05:00 UTC
Pronóstico válido del 23 a las 06 UTC al 23 a las 15 UTC
Viento 4 kt con dirección variable
Visibilidad 10 km o más
sin nubes por debajo de 1500 m y sin presencia de cumulonimbus.
Probabilidad 40% :
Temporalmente
del 23 a las 06 UTC al 23 a las 08 UTC
Viento 7 kt del norte-noreste

TAF: LEGT 230500Z 2306/2315 VRB04KT CAVOK PROB40 TEMPO 2306/2308 03007KT

Observaciones y pronósticos meteorológicos de más de 4000 aeropuertos (mensajes METAR y TAF).

Los puntos amarillos y rojos representan las estaciones disponibles.

Ponga el ratón en el punto deseado para ver el nombre de la estación.

Haga clic para ver las observaciones y los pronósticos meteorológicos.

Para cambiar el mapa : haga clic en los botones verdes con una cruz de color negro para hacer un zoom, en el botón verde con un guión para alejar o en las flechas verdes para mapas adyacentes.


METAR-TAF: